createdAt,value
2023-03-26T00:04:26.127Z,3.30
2023-03-26T00:09:33.012Z,3.70
2023-03-26T00:14:40.964Z,3.40
2023-03-26T00:19:47.844Z,2.50
2023-03-26T00:24:56.958Z,2.90
2023-03-26T00:30:05.190Z,2.70
2023-03-26T00:35:14.084Z,2.90
2023-03-26T00:40:21.517Z,2.70
2023-03-26T00:45:28.563Z,2.70
2023-03-26T00:50:35.635Z,3.00
2023-03-26T00:55:43.043Z,5.10
2023-03-26T01:00:52.441Z,3.00
2023-03-26T01:06:04.722Z,3.80
2023-03-26T01:11:15.389Z,3.20
2023-03-26T01:16:27.723Z,3.60
2023-03-26T01:21:35.383Z,3.60
2023-03-26T01:27:04.397Z,3.60
2023-03-26T01:32:23.050Z,3.30
2023-03-26T01:37:38.676Z,3.30
2023-03-26T01:42:55.409Z,4.30
2023-03-26T01:48:02.925Z,3.40
2023-03-26T01:53:12.654Z,2.90
2023-03-26T01:58:26.588Z,2.90
2023-03-26T02:03:38.650Z,2.60
2023-03-26T02:08:52.885Z,3.50
2023-03-26T02:14:00.777Z,3.10
2023-03-26T02:19:15.643Z,3.20
2023-03-26T02:24:25.570Z,3.30
2023-03-26T02:29:37.750Z,2.70
2023-03-26T02:34:45.347Z,3.20
2023-03-26T02:39:52.818Z,2.70
2023-03-26T02:45:09.646Z,4.00
2023-03-26T02:50:36.998Z,3.30
2023-03-26T02:56:11.040Z,3.00
2023-03-26T03:01:23.518Z,3.50
2023-03-26T03:06:33.259Z,3.40
2023-03-26T03:11:41.568Z,3.00
2023-03-26T03:16:48.876Z,3.20
2023-03-26T03:21:55.750Z,2.60
2023-03-26T03:27:02.714Z,2.70
2023-03-26T03:32:14.662Z,2.40
2023-03-26T03:37:27.055Z,2.40
2023-03-26T03:42:35.145Z,2.10
2023-03-26T03:47:43.560Z,2.20
2023-03-26T03:52:51.434Z,3.30
2023-03-26T03:57:58.608Z,2.70
2023-03-26T04:03:06.740Z,2.30
2023-03-26T04:08:14.600Z,3.90
2023-03-26T04:13:28.113Z,2.20
2023-03-26T04:18:36.766Z,2.30
2023-03-26T04:23:49.470Z,2.30
2023-03-26T04:29:17.178Z,2.40
2023-03-26T04:34:26.376Z,2.70
2023-03-26T04:39:45.054Z,1.70
2023-03-26T04:45:23.169Z,3.30
2023-03-26T04:50:35.851Z,2.80
2023-03-26T04:55:48.998Z,2.90
2023-03-26T05:01:10.429Z,3.70
2023-03-26T05:06:21.903Z,2.50
2023-03-26T05:11:29.591Z,2.20
2023-03-26T05:16:37.604Z,1.30
2023-03-26T05:21:50.815Z,2.00
2023-03-26T05:26:57.826Z,1.70
2023-03-26T05:32:05.740Z,2.20
2023-03-26T05:37:13.894Z,1.40
2023-03-26T05:42:41.298Z,1.60
2023-03-26T05:48:17.530Z,1.40
2023-03-26T05:53:25.595Z,1.60
2023-03-26T05:58:52.155Z,1.70
2023-03-26T06:04:18.178Z,2.50
2023-03-26T06:09:53.519Z,1.40
2023-03-26T06:15:00.887Z,2.50
2023-03-26T06:20:28.330Z,1.60
2023-03-26T06:25:35.884Z,2.10
2023-03-26T06:31:15.039Z,2.00
2023-03-26T06:36:52.729Z,1.50
2023-03-26T06:42:01.121Z,2.00
2023-03-26T06:47:25.538Z,1.90
2023-03-26T06:52:58.607Z,2.30
2023-03-26T06:58:25.845Z,2.40
2023-03-26T07:03:51.551Z,2.80
2023-03-26T07:09:33.237Z,1.90
2023-03-26T07:15:00.822Z,2.50
2023-03-26T07:20:40.572Z,2.30
2023-03-26T07:25:49.836Z,2.30
2023-03-26T07:31:27.291Z,1.60
2023-03-26T07:36:58.595Z,2.40
2023-03-26T07:42:37.592Z,2.00
2023-03-26T07:48:19.021Z,1.90
2023-03-26T07:53:46.893Z,2.40
2023-03-26T07:59:26.216Z,2.00
2023-03-26T08:04:57.329Z,2.00
2023-03-26T08:10:38.381Z,2.30
2023-03-26T08:15:54.545Z,2.60
2023-03-26T08:21:06.304Z,2.30
2023-03-26T08:26:20.347Z,2.50
2023-03-26T08:31:34.074Z,2.00
2023-03-26T08:36:41.285Z,2.60
2023-03-26T08:42:23.097Z,2.00
2023-03-26T08:53:26.671Z,1.60
2023-03-26T08:59:08.724Z,1.90
2023-03-26T09:04:36.455Z,1.50
2023-03-26T09:10:07.108Z,1.70
2023-03-26T09:15:29.693Z,1.90
2023-03-26T09:21:07.200Z,1.90
2023-03-26T09:26:28.071Z,1.60
2023-03-26T09:32:32.213Z,1.70
2023-03-26T09:37:58.624Z,2.30
2023-03-26T09:43:33.503Z,2.70
2023-03-26T09:48:57.643Z,2.30
2023-03-26T09:54:21.941Z,1.80
2023-03-26T10:00:10.956Z,1.70
2023-03-26T10:05:41.441Z,3.20
2023-03-26T10:10:56.570Z,2.70
2023-03-26T10:16:14.005Z,3.00
2023-03-26T10:21:31.421Z,2.60
2023-03-26T10:27:09.348Z,2.70
2023-03-26T10:32:32.142Z,2.50
2023-03-26T10:43:24.210Z,2.80
2023-03-26T10:48:45.471Z,2.60
2023-03-26T10:53:59.935Z,2.80
2023-03-26T10:59:13.130Z,3.90
2023-03-26T11:04:31.585Z,3.70
2023-03-26T11:09:44.944Z,3.60
2023-03-26T11:14:59.580Z,5.50
2023-03-26T11:20:12.979Z,3.80
2023-03-26T11:25:37.054Z,3.90
2023-03-26T11:30:49.713Z,4.00
2023-03-26T11:36:02.485Z,4.10
2023-03-26T11:41:16.244Z,5.10
2023-03-26T11:46:44.932Z,4.40
2023-03-26T11:51:53.483Z,3.90
2023-03-26T11:57:05.568Z,3.90
2023-03-26T12:02:29.678Z,4.30
2023-03-26T12:07:37.880Z,3.60
2023-03-26T12:12:47.237Z,3.30
2023-03-26T12:17:58.206Z,3.50
2023-03-26T12:23:08.308Z,2.90
2023-03-26T12:28:21.576Z,3.10
2023-03-26T12:33:34.287Z,3.80
2023-03-26T12:38:42.566Z,2.80
2023-03-26T12:44:49.205Z,2.30
2023-03-26T12:49:18.962Z,2.40
2023-03-26T12:54:42.569Z,2.20
2023-03-26T13:00:14.087Z,1.70
2023-03-26T13:05:43.227Z,2.20
2023-03-26T13:10:56.411Z,2.00
2023-03-26T13:16:10.101Z,1.90
2023-03-26T13:21:28.652Z,2.20
2023-03-26T13:26:49.949Z,2.40
2023-03-26T13:37:16.098Z,2.40
2023-03-26T13:42:37.737Z,3.20
2023-03-26T13:47:50.601Z,2.60
2023-03-26T13:53:00.562Z,2.40
2023-03-26T13:58:17.976Z,2.50
2023-03-26T14:03:31.911Z,2.80
2023-03-26T14:08:44.597Z,2.20
2023-03-26T14:13:57.976Z,2.50
2023-03-26T14:19:32.158Z,2.60
2023-03-26T14:24:59.185Z,1.60
2023-03-26T14:30:30.065Z,2.50
2023-03-26T14:35:42.664Z,2.90
2023-03-26T14:41:03.253Z,2.70
2023-03-26T14:46:29.339Z,3.50
2023-03-26T14:51:59.610Z,2.60
2023-03-26T14:57:33.607Z,2.90
2023-03-26T15:03:22.268Z,2.70
2023-03-26T15:09:09.094Z,4.10
2023-03-26T15:14:43.717Z,4.70
2023-03-26T15:20:20.803Z,3.30
2023-03-26T15:25:53.100Z,3.90
2023-03-26T15:31:18.832Z,2.40
2023-03-26T15:37:12.043Z,5.60
2023-03-26T15:42:29.730Z,5.00
2023-03-26T15:47:49.880Z,4.60
2023-03-26T15:53:06.777Z,4.70
2023-03-26T15:58:22.786Z,4.50
2023-03-26T16:03:41.201Z,4.00
2023-03-26T16:09:00.704Z,2.40
2023-03-26T16:14:18.055Z,2.30
2023-03-26T16:19:53.340Z,5.70
2023-03-26T16:25:36.780Z,39.50
2023-03-26T16:30:46.248Z,26.50
2023-03-26T16:36:18.500Z,15.90
2023-03-26T16:41:30.550Z,28.80
2023-03-26T16:52:09.619Z,21.10
2023-03-26T16:57:30.642Z,22.30
2023-03-26T17:02:51.387Z,22.60
2023-03-26T17:08:06.808Z,25.40
2023-03-26T17:13:23.367Z,18.50
2023-03-26T17:18:42.656Z,13.20
2023-03-26T17:24:07.041Z,11.40
2023-03-26T17:29:53.130Z,11.40
2023-03-26T17:35:07.594Z,22.00
2023-03-26T17:40:48.170Z,13.80
2023-03-26T17:46:02.800Z,41.20
2023-03-26T17:51:28.110Z,38.50
2023-03-26T17:56:38.898Z,30.00
2023-03-26T18:01:48.537Z,34.40
2023-03-26T18:07:17.367Z,20.50
2023-03-26T18:12:51.572Z,15.40
2023-03-26T18:18:10.514Z,35.10
2023-03-26T18:23:26.375Z,21.20
2023-03-26T18:28:42.228Z,21.70
2023-03-26T18:33:50.950Z,23.00
2023-03-26T18:39:01.421Z,24.20
2023-03-26T18:44:14.020Z,17.00
2023-03-26T18:49:21.707Z,12.40
2023-03-26T18:54:34.966Z,9.40
2023-03-26T18:59:46.299Z,8.70
2023-03-26T19:04:54.441Z,10.10
2023-03-26T19:10:03.039Z,13.40
2023-03-26T19:15:14.711Z,10.90
2023-03-26T19:25:34.325Z,6.70
2023-03-26T19:30:43.921Z,7.70
2023-03-26T19:36:03.607Z,6.10
2023-03-26T19:41:22.689Z,6.40
2023-03-26T19:46:53.624Z,6.80
2023-03-26T19:57:20.049Z,6.70
2023-03-26T20:02:27.834Z,5.70
2023-03-26T20:07:36.450Z,4.30
2023-03-26T20:12:43.602Z,5.10
2023-03-26T20:17:52.406Z,6.40
2023-03-26T20:22:59.651Z,6.00
2023-03-26T20:28:09.128Z,6.30
2023-03-26T20:33:20.464Z,7.40
2023-03-26T20:38:39.106Z,6.10
2023-03-26T20:43:46.692Z,6.00
2023-03-26T20:48:55.449Z,6.00
2023-03-26T20:54:03.322Z,5.90
2023-03-26T20:59:11.711Z,6.80
2023-03-26T21:04:20.054Z,6.70
2023-03-26T21:09:34.337Z,5.90
2023-03-26T21:14:44.085Z,6.40
2023-03-26T21:19:52.264Z,6.90
2023-03-26T21:25:11.805Z,6.60
2023-03-26T21:30:20.129Z,6.80
2023-03-26T21:35:28.627Z,8.10
2023-03-26T21:40:42.283Z,8.50
2023-03-26T21:45:54.153Z,8.00
2023-03-26T21:51:04.847Z,8.20
2023-03-26T21:56:24.274Z,7.80
2023-03-26T22:01:42.743Z,9.10
2023-03-26T22:06:58.139Z,8.20
2023-03-26T22:12:05.660Z,8.80
2023-03-26T22:17:12.644Z,14.50
2023-03-26T22:22:22.207Z,13.90
2023-03-26T22:27:29.166Z,14.40
2023-03-26T22:32:37.683Z,11.40
2023-03-26T22:37:45.164Z,10.40
2023-03-26T22:42:53.511Z,10.90
2023-03-26T22:48:04.616Z,8.80
2023-03-26T22:53:12.035Z,9.10
2023-03-26T22:58:19.223Z,9.10
2023-03-26T23:03:34.781Z,8.60
2023-03-26T23:08:42.973Z,8.10
2023-03-26T23:13:50.643Z,7.50
2023-03-26T23:18:57.668Z,6.40
2023-03-26T23:24:05.105Z,6.90
2023-03-26T23:29:13.926Z,6.50
2023-03-26T23:34:21.725Z,6.50
2023-03-26T23:39:28.721Z,5.60
2023-03-26T23:44:39.389Z,5.70
2023-03-26T23:49:46.614Z,5.80
2023-03-26T23:54:53.576Z,5.30
